Time;durP1;ratioP1;P1;durP2;ratioP2;P2;SDS_P1;SDS_P2;PMS_P1;PMS_P2;Temp;Humidity;BMP_temperature;BMP_pressure;BME280_temperature;BME280_humidity;BME280_pressure;Samples;Min_cycle;Max_cycle;Signal;HPM_P1;HPM_P2
2022/03/25 00:00:32;;;;;;;37.40;24.67;;;12.10;84.90;;;;;;5001370;28;20624;-36
2022/03/25 00:03:04;;;;;;;40.37;26.20;;;12.10;84.80;;;;;;5001024;28;20209;-36
2022/03/25 00:05:32;;;;;;;40.38;27.17;;;12.10;85.10;;;;;;5007649;28;20249;-36
2022/03/25 00:08:02;;;;;;;40.47;25.37;;;12.20;85.30;;;;;;5006751;28;20296;-36
2022/03/25 00:10:34;;;;;;;39.90;26.40;;;12.10;85.40;;;;;;5002546;28;20729;-36
2022/03/25 00:13:07;;;;;;;41.30;26.20;;;12.10;85.40;;;;;;4987941;28;20230;-36
2022/03/25 00:15:34;;;;;;;39.47;25.13;;;12.10;85.50;;;;;;4989683;28;20297;-36
2022/03/25 00:18:03;;;;;;;40.50;26.33;;;12.10;85.50;;;;;;4991846;28;20256;-36
2022/03/25 00:20:31;;;;;;;41.87;25.67;;;12.00;85.50;;;;;;4991311;28;20236;-36
2022/03/25 00:22:58;;;;;;;40.47;26.50;;;12.00;85.50;;;;;;4992562;28;20565;-36
2022/03/25 00:25:26;;;;;;;35.83;25.10;;;12.00;85.60;;;;;;4991746;28;20232;-36
2022/03/25 00:27:56;;;;;;;40.03;25.30;;;12.00;85.70;;;;;;4992083;28;20601;-36
2022/03/25 00:30:23;;;;;;;39.37;26.23;;;12.00;85.80;;;;;;4991390;28;20199;-36
2022/03/25 00:32:51;;;;;;;39.43;25.90;;;11.90;85.90;;;;;;4991700;28;20198;-36
2022/03/25 00:35:20;;;;;;;41.43;25.23;;;11.90;85.90;;;;;;4991247;28;20218;-36
2022/03/25 00:37:48;;;;;;;38.60;26.13;;;11.90;86.10;;;;;;4991846;28;20284;-36
2022/03/25 00:40:15;;;;;;;39.93;26.13;;;11.80;85.90;;;;;;4992497;28;20253;-36
2022/03/25 00:42:45;;;;;;;42.73;27.27;;;11.70;86.10;;;;;;4991178;28;20269;-36
2022/03/25 00:45:13;;;;;;;43.37;26.40;;;11.70;86.20;;;;;;5000609;28;20237;-35
2022/03/25 00:47:40;;;;;;;43.87;26.13;;;11.70;86.20;;;;;;5009578;28;20206;-36
2022/03/25 00:50:12;;;;;;;41.87;24.57;;;11.60;86.20;;;;;;5010486;28;20316;-36
2022/03/25 00:52:43;;;;;;;42.27;25.33;;;11.60;86.20;;;;;;5011266;28;20217;-36
2022/03/25 00:55:10;;;;;;;37.53;23.93;;;11.50;86.00;;;;;;5010635;28;20247;-35
2022/03/25 00:57:38;;;;;;;32.75;23.42;;;11.50;86.20;;;;;;5003362;28;20296;-36
2022/03/25 01:00:11;;;;;;;32.85;21.20;;;11.50;86.30;;;;;;4990695;28;20361;-36
2022/03/25 01:02:38;;;;;;;32.67;20.43;;;11.40;86.90;;;;;;4991878;28;20230;-36
2022/03/25 01:05:08;;;;;;;34.13;20.70;;;11.40;86.20;;;;;;4990645;28;20656;-36
2022/03/25 01:07:38;;;;;;;28.30;20.10;;;11.30;86.40;;;;;;5003266;28;20285;-36
2022/03/25 01:10:17;;;;;;;30.20;19.30;;;11.20;86.30;;;;;;4991039;28;20593;-35
2022/03/25 01:12:46;;;;;;;31.47;20.53;;;11.20;86.40;;;;;;4990735;28;20540;-36
2022/03/25 01:15:16;;;;;;;32.77;20.70;;;11.20;86.30;;;;;;5002786;28;20279;-36
2022/03/25 01:17:46;;;;;;;30.60;18.93;;;11.20;86.40;;;;;;5010716;28;20201;-36
2022/03/25 01:20:17;;;;;;;29.20;18.97;;;11.10;86.20;;;;;;5005208;28;20237;-36
2022/03/25 01:22:47;;;;;;;29.23;20.30;;;11.10;86.30;;;;;;4991014;28;20215;-36
2022/03/25 01:25:16;;;;;;;26.03;18.97;;;11.10;86.40;;;;;;5004810;28;20288;-35
2022/03/25 01:27:46;;;;;;;25.57;19.23;;;11.10;86.40;;;;;;4990385;28;20202;-36
2022/03/25 01:30:16;;;;;;;29.03;19.03;;;11.00;86.40;;;;;;4990460;28;20230;-33
2022/03/25 01:32:46;;;;;;;30.63;20.00;;;11.00;86.40;;;;;;4991476;28;20210;-33
2022/03/25 01:35:24;;;;;;;30.37;18.63;;;10.90;86.50;;;;;;4993591;28;20711;-31
2022/03/25 01:37:54;;;;;;;31.67;20.07;;;10.90;86.50;;;;;;5010324;28;20615;-31
2022/03/25 01:40:26;;;;;;;29.40;19.53;;;10.80;86.50;;;;;;5010617;28;20268;-32
2022/03/25 01:42:55;;;;;;;32.87;20.20;;;10.80;86.50;;;;;;4992068;28;20201;-32
2022/03/25 01:45:30;;;;;;;28.53;19.80;;;10.70;86.40;;;;;;5009395;28;20221;-32
2022/03/25 01:48:06;;;;;;;31.33;20.20;;;10.70;86.70;;;;;;5008596;28;20216;-33
2022/03/25 01:50:41;;;;;;;33.60;19.67;;;10.70;86.40;;;;;;4993253;28;20750;-33
2022/03/25 01:53:18;;;;;;;27.87;19.20;;;10.60;86.30;;;;;;4999624;28;20206;-32
2022/03/25 01:56:01;;;;;;;29.93;20.17;;;10.60;86.70;;;;;;4990284;28;20250;-32
2022/03/25 01:58:32;;;;;;;30.73;20.23;;;10.60;86.70;;;;;;5001833;28;20202;-32
2022/03/25 02:01:04;;;;;;;28.37;19.53;;;10.50;86.20;;;;;;5009844;28;20260;-32
2022/03/25 02:03:39;;;;;;;29.67;20.30;;;10.50;86.40;;;;;;5009078;28;20271;-32
2022/03/25 02:06:06;;;;;;;31.63;20.30;;;10.40;86.50;;;;;;5007336;28;20214;-32
2022/03/25 02:08:38;;;;;;;31.90;20.60;;;10.40;86.40;;;;;;4990390;28;20219;-32
2022/03/25 02:11:09;;;;;;;31.20;20.13;;;10.40;86.60;;;;;;5002620;28;20634;-32
2022/03/25 02:13:36;;;;;;;28.07;19.77;;;10.30;86.70;;;;;;5004007;28;20644;-32
2022/03/25 02:16:04;;;;;;;34.67;22.30;;;10.30;86.60;;;;;;4991925;28;20268;-32
2022/03/25 02:18:36;;;;;;;32.87;21.80;;;10.20;86.50;;;;;;5008665;28;20734;-31
2022/03/25 02:21:05;;;;;;;29.43;20.10;;;10.20;86.60;;;;;;5009258;28;20211;-32
2022/03/25 02:23:35;;;;;;;39.17;21.83;;;10.10;86.60;;;;;;5000163;28;20213;-32
2022/03/25 02:26:05;;;;;;;33.10;21.77;;;10.10;86.70;;;;;;5003829;28;20233;-32
2022/03/25 02:28:33;;;;;;;32.80;22.03;;;10.00;86.40;;;;;;5000018;28;20239;-32
2022/03/25 02:31:02;;;;;;;34.70;22.50;;;10.00;86.60;;;;;;4987715;28;20221;-33
2022/03/25 02:33:34;;;;;;;37.93;22.00;;;9.90;87.70;;;;;;5008497;28;20306;-32
2022/03/25 02:36:02;;;;;;;33.33;22.20;;;9.90;87.90;;;;;;5008835;28;20703;-32
2022/03/25 02:38:29;;;;;;;37.37;23.47;;;9.90;87.80;;;;;;5008220;28;20830;-32
2022/03/25 02:40:56;;;;;;;38.97;24.50;;;9.80;87.80;;;;;;4989820;28;20210;-32
2022/03/25 02:43:23;;;;;;;37.70;25.20;;;9.80;87.80;;;;;;4988974;28;21163;-32
2022/03/25 02:45:53;;;;;;;38.43;23.97;;;9.80;87.90;;;;;;4989465;28;20284;-32
2022/03/25 02:48:20;;;;;;;38.40;22.33;;;9.80;88.00;;;;;;4993756;28;20747;-32
2022/03/25 02:50:52;;;;;;;30.63;22.47;;;9.70;87.90;;;;;;5009122;28;20565;-32
2022/03/25 02:53:24;;;;;;;36.80;22.67;;;9.70;87.90;;;;;;5008568;28;20668;-33
2022/03/25 02:55:54;;;;;;;37.00;23.03;;;9.70;88.00;;;;;;5006799;28;20210;-32
2022/03/25 02:58:24;;;;;;;37.90;23.87;;;9.70;88.10;;;;;;4988108;28;20242;-35
2022/03/25 03:00:58;;;;;;;36.07;22.97;;;9.60;88.10;;;;;;4992049;28;20300;-36
2022/03/25 03:03:26;;;;;;;38.47;24.17;;;9.60;88.20;;;;;;4993704;28;20221;-35
2022/03/25 03:05:56;;;;;;;36.70;25.33;;;9.60;88.10;;;;;;5008586;28;20253;-32
2022/03/25 03:08:28;;;;;;;42.43;26.03;;;9.50;88.10;;;;;;5008155;28;20663;-32
2022/03/25 03:11:01;;;;;;;38.07;24.67;;;9.50;88.20;;;;;;5008682;28;20687;-32
2022/03/25 03:13:30;;;;;;;45.00;25.17;;;9.50;88.20;;;;;;5001414;28;20403;-32
2022/03/25 03:16:01;;;;;;;36.43;22.97;;;9.50;88.40;;;;;;4989082;28;20296;-32
2022/03/25 03:18:28;;;;;;;35.10;21.53;;;9.50;88.30;;;;;;4974731;28;20301;-32
2022/03/25 03:21:03;;;;;;;30.07;21.60;;;9.50;88.40;;;;;;4991699;28;20210;-32
2022/03/25 03:23:33;;;;;;;35.13;22.77;;;9.40;88.40;;;;;;4988562;28;20218;-32
2022/03/25 03:26:03;;;;;;;33.67;22.30;;;9.40;88.40;;;;;;4988844;28;20222;-32
2022/03/25 03:28:32;;;;;;;39.20;23.70;;;9.40;89.10;;;;;;4970644;28;20601;-33
2022/03/25 03:31:02;;;;;;;36.03;23.80;;;9.40;88.60;;;;;;4989512;28;20269;-33
2022/03/25 03:33:32;;;;;;;38.63;25.13;;;9.30;88.40;;;;;;4987989;28;20208;-32
2022/03/25 03:36:02;;;;;;;41.23;24.90;;;9.30;88.70;;;;;;5005645;28;20220;-31
2022/03/25 03:38:31;;;;;;;38.90;24.43;;;9.30;88.60;;;;;;5007723;28;20213;-32
2022/03/25 03:41:03;;;;;;;35.83;23.23;;;9.30;88.80;;;;;;5008365;28;20210;-32
2022/03/25 03:43:31;;;;;;;40.13;23.67;;;9.30;88.60;;;;;;5007320;28;20956;-31
2022/03/25 03:46:00;;;;;;;33.30;22.20;;;9.30;88.80;;;;;;5008141;28;20587;-32
2022/03/25 03:48:33;;;;;;;36.20;22.70;;;9.20;88.70;;;;;;5006375;28;20194;-32
2022/03/25 03:51:04;;;;;;;42.40;26.20;;;9.20;88.70;;;;;;5005575;28;20296;-31
2022/03/25 03:53:34;;;;;;;42.93;27.17;;;9.20;88.70;;;;;;5007489;28;20703;-33
2022/03/25 03:56:04;;;;;;;43.57;27.03;;;9.20;88.80;;;;;;5008069;28;20826;-33
2022/03/25 03:58:34;;;;;;;42.83;28.07;;;9.10;88.70;;;;;;5006731;28;20724;-33
2022/03/25 04:01:01;;;;;;;47.03;27.93;;;9.10;88.80;;;;;;5008136;28;20252;-32
2022/03/25 04:03:34;;;;;;;43.20;27.40;;;9.10;88.90;;;;;;5007252;28;20869;-32
2022/03/25 04:06:03;;;;;;;41.37;25.90;;;9.10;88.80;;;;;;4972068;28;20222;-33
2022/03/25 04:08:31;;;;;;;45.40;27.57;;;9.10;89.20;;;;;;4992415;28;20206;-32
2022/03/25 04:10:58;;;;;;;43.90;27.93;;;9.10;89.20;;;;;;4988774;28;20206;-32
2022/03/25 04:13:28;;;;;;;51.23;30.23;;;9.10;89.20;;;;;;4987846;28;20325;-32
2022/03/25 04:15:55;;;;;;;51.13;30.80;;;9.10;89.40;;;;;;4988202;28;20211;-32
2022/03/25 04:18:26;;;;;;;46.57;28.77;;;9.10;89.30;;;;;;4987498;28;20208;-32
2022/03/25 04:20:53;;;;;;;40.43;27.03;;;9.10;89.60;;;;;;4987441;28;20281;-32
2022/03/25 04:23:23;;;;;;;47.17;26.80;;;9.00;89.40;;;;;;4970544;28;20202;-34
2022/03/25 04:25:51;;;;;;;45.43;26.80;;;9.00;89.60;;;;;;4995687;28;20272;-32
2022/03/25 04:28:19;;;;;;;40.47;25.27;;;9.00;89.60;;;;;;5006454;28;20240;-32
2022/03/25 04:30:48;;;;;;;40.87;24.00;;;9.00;89.70;;;;;;4995616;28;20966;-32
2022/03/25 04:33:18;;;;;;;36.13;22.50;;;9.00;89.80;;;;;;5007564;28;20288;-32
2022/03/25 04:35:45;;;;;;;30.53;21.03;;;9.00;89.90;;;;;;5007816;28;20618;-32
2022/03/25 04:38:14;;;;;;;35.77;21.53;;;8.90;89.60;;;;;;5003534;28;20210;-32
2022/03/25 04:40:44;;;;;;;34.27;22.17;;;8.90;89.60;;;;;;4988192;28;20285;-32
2022/03/25 04:43:15;;;;;;;34.40;20.63;;;8.80;89.50;;;;;;4987626;28;20242;-32
2022/03/25 04:45:47;;;;;;;37.50;20.37;;;8.80;89.60;;;;;;4986769;28;20194;-32
2022/03/25 04:48:14;;;;;;;32.67;21.20;;;8.80;89.70;;;;;;4987816;28;20245;-33
2022/03/25 04:50:44;;;;;;;36.00;20.60;;;8.70;89.60;;;;;;4987595;28;20297;-35
2022/03/25 04:53:16;;;;;;;36.87;21.03;;;8.70;89.60;;;;;;4970912;28;20195;-35
2022/03/25 04:55:46;;;;;;;33.57;21.57;;;8.70;89.60;;;;;;4995497;28;20712;-36
2022/03/25 04:58:14;;;;;;;36.30;20.77;;;8.70;89.60;;;;;;5006763;28;20210;-36
2022/03/25 05:00:44;;;;;;;31.53;20.27;;;8.70;89.60;;;;;;4993617;28;20300;-36
2022/03/25 05:03:11;;;;;;;36.23;22.27;;;8.70;89.60;;;;;;4989834;28;20202;-35
2022/03/25 05:05:43;;;;;;;33.97;20.47;;;8.60;89.60;;;;;;4991100;28;20305;-36
2022/03/25 05:08:14;;;;;;;30.27;20.53;;;8.70;89.90;;;;;;4991029;28;20249;-36
2022/03/25 05:10:45;;;;;;;31.27;20.37;;;8.60;89.80;;;;;;4991421;28;20202;-35
2022/03/25 05:13:28;;;;;;;34.10;21.43;;;8.60;89.90;;;;;;4990722;28;20202;-35
2022/03/25 05:15:55;;;;;;;35.50;21.70;;;8.60;89.90;;;;;;4991745;28;20195;-35
2022/03/25 05:18:24;;;;;;;34.70;21.30;;;8.50;89.70;;;;;;5009879;28;20194;-35
2022/03/25 05:20:54;;;;;;;32.70;20.73;;;8.60;89.70;;;;;;5010480;28;20290;-35
2022/03/25 05:23:26;;;;;;;35.97;22.23;;;8.60;89.80;;;;;;5010174;28;20206;-35
2022/03/25 05:25:55;;;;;;;32.70;21.30;;;8.50;89.60;;;;;;4993121;28;20214;-36
2022/03/25 05:28:26;;;;;;;38.07;22.30;;;8.50;89.70;;;;;;5009311;28;20209;-36
2022/03/25 05:30:55;;;;;;;34.43;20.73;;;8.50;89.60;;;;;;4992620;28;20198;-35
2022/03/25 05:33:25;;;;;;;36.10;22.20;;;8.50;89.80;;;;;;4990666;28;20226;-35
2022/03/25 05:35:53;;;;;;;34.40;22.37;;;8.40;90.00;;;;;;4998554;28;20240;-36
2022/03/25 05:38:22;;;;;;;33.03;21.73;;;8.40;89.80;;;;;;4992946;28;20210;-36
2022/03/25 05:40:50;;;;;;;36.00;22.33;;;8.30;89.90;;;;;;4990801;28;20297;-35
2022/03/25 05:43:17;;;;;;;38.73;22.00;;;8.30;89.90;;;;;;4989492;28;20219;-35
2022/03/25 05:45:46;;;;;;;39.00;22.43;;;8.30;90.00;;;;;;4990536;28;20368;-35
2022/03/25 05:48:16;;;;;;;31.60;21.27;;;8.20;89.90;;;;;;5002569;28;20257;-36
2022/03/25 05:50:45;;;;;;;38.63;22.17;;;8.20;89.90;;;;;;5009023;28;20198;-35
2022/03/25 05:53:12;;;;;;;36.97;22.57;;;8.20;90.00;;;;;;5009804;28;20206;-35
2022/03/25 05:55:45;;;;;;;34.13;22.63;;;8.20;90.00;;;;;;5009756;28;20565;-35
2022/03/25 05:58:20;;;;;;;40.90;24.17;;;8.20;90.00;;;;;;5008787;28;20216;-35
2022/03/25 06:00:52;;;;;;;41.23;23.80;;;8.20;90.00;;;;;;5009702;28;20242;-35
2022/03/25 06:03:19;;;;;;;42.23;24.43;;;8.20;90.10;;;;;;5005039;28;20216;-35
2022/03/25 06:05:54;;;;;;;43.13;23.93;;;8.20;90.00;;;;;;4972880;28;20202;-35
2022/03/25 06:08:23;;;;;;;40.33;25.37;;;8.20;90.00;;;;;;4988849;28;20490;-36
2022/03/25 06:10:51;;;;;;;39.97;24.93;;;8.20;90.10;;;;;;4990351;28;20205;-36
2022/03/25 06:13:20;;;;;;;48.67;27.00;;;8.20;90.10;;;;;;4986572;28;20633;-35
2022/03/25 06:15:48;;;;;;;59.93;32.40;;;8.20;90.00;;;;;;4989917;28;20538;-35
2022/03/25 06:18:16;;;;;;;54.67;30.57;;;8.30;90.10;;;;;;4989971;28;20600;-36
2022/03/25 06:20:43;;;;;;;50.20;31.73;;;8.30;90.10;;;;;;4990571;28;20230;-35
2022/03/25 06:23:13;;;;;;;57.77;34.17;;;8.40;90.20;;;;;;4989507;28;20671;-35
2022/03/25 06:25:41;;;;;;;62.43;35.70;;;8.40;90.30;;;;;;5004195;28;20259;-35
2022/03/25 06:28:09;;;;;;;55.07;33.93;;;8.50;90.50;;;;;;5008442;28;20256;-35
2022/03/25 06:30:38;;;;;;;52.47;31.57;;;8.50;90.50;;;;;;5009181;28;20295;-36
2022/03/25 06:33:09;;;;;;;52.33;30.83;;;8.50;90.60;;;;;;4991785;28;20205;-35
2022/03/25 06:35:40;;;;;;;54.83;31.83;;;8.60;90.60;;;;;;4990839;28;20209;-36
2022/03/25 06:38:10;;;;;;;57.07;33.87;;;8.60;90.70;;;;;;4997951;28;20666;-35
2022/03/25 06:40:40;;;;;;;54.40;34.33;;;8.70;90.90;;;;;;4989792;28;20198;-36
2022/03/25 06:43:12;;;;;;;53.93;34.90;;;8.70;90.90;;;;;;4988171;28;20229;-35
2022/03/25 06:45:41;;;;;;;57.03;36.53;;;8.70;90.80;;;;;;5001017;28;20676;-36
2022/03/25 06:48:09;;;;;;;64.03;36.40;;;8.80;90.80;;;;;;5008420;28;20229;-35
2022/03/25 06:50:41;;;;;;;63.43;37.73;;;8.80;90.90;;;;;;5008307;28;20208;-36
2022/03/25 06:53:11;;;;;;;66.43;37.47;;;8.90;91.00;;;;;;5008760;28;20224;-36
2022/03/25 06:55:40;;;;;;;64.97;39.37;;;8.90;90.90;;;;;;4993436;28;20677;-36
2022/03/25 06:58:09;;;;;;;66.10;37.90;;;9.00;91.00;;;;;;4989443;28;20242;-36
2022/03/25 07:00:37;;;;;;;67.70;38.93;;;9.00;91.10;;;;;;4988389;28;20434;-36
2022/03/25 07:03:07;;;;;;;64.70;38.60;;;9.10;91.10;;;;;;4991514;28;20217;-35
2022/03/25 07:05:38;;;;;;;66.07;37.57;;;9.10;91.20;;;;;;5008312;28;20739;-36
2022/03/25 07:08:06;;;;;;;72.37;38.20;;;9.20;91.20;;;;;;5008388;28;20322;-36
2022/03/25 07:10:38;;;;;;;66.03;37.03;;;9.20;91.30;;;;;;4990510;28;20584;-36
2022/03/25 07:13:09;;;;;;;65.30;37.60;;;9.30;91.40;;;;;;5006841;28;20322;-36
2022/03/25 07:15:36;;;;;;;60.90;36.00;;;9.40;91.50;;;;;;5007346;28;20304;-36
2022/03/25 07:18:06;;;;;;;71.03;38.00;;;9.40;91.30;;;;;;5008056;28;20634;-36
2022/03/25 07:20:33;;;;;;;61.17;37.90;;;9.50;91.40;;;;;;5007682;28;20217;-36
2022/03/25 07:23:01;;;;;;;60.93;36.60;;;9.50;91.40;;;;;;5006459;28;20268;-36
2022/03/25 07:25:32;;;;;;;61.03;35.97;;;9.60;91.50;;;;;;5007774;28;20681;-35
2022/03/25 07:28:04;;;;;;;61.47;38.13;;;9.60;91.60;;;;;;5004323;28;20587;-36
2022/03/25 07:30:34;;;;;;;61.57;37.53;;;9.70;91.60;;;;;;4988187;28;20205;-36
2022/03/25 07:33:03;;;;;;;60.73;36.70;;;9.70;91.60;;;;;;4998005;28;20617;-36
2022/03/25 07:35:33;;;;;;;58.07;37.83;;;9.80;91.70;;;;;;4988003;28;20202;-36
2022/03/25 07:38:06;;;;;;;63.20;37.80;;;9.80;91.70;;;;;;4988358;28;20229;-35
2022/03/25 07:40:35;;;;;;;62.67;37.80;;;9.90;91.80;;;;;;4988387;28;20764;-36
2022/03/25 07:43:03;;;;;;;62.63;36.93;;;9.90;92.00;;;;;;4986707;28;20213;-36
2022/03/25 07:45:31;;;;;;;61.60;36.57;;;10.00;91.40;;;;;;4987954;28;20229;-36
2022/03/25 07:48:04;;;;;;;61.97;36.97;;;10.00;91.30;;;;;;4971109;28;20221;-35
2022/03/25 07:50:33;;;;;;;66.50;38.33;;;10.10;91.30;;;;;;4996194;28;20257;-36
2022/03/25 07:53:00;;;;;;;61.80;38.23;;;10.10;91.80;;;;;;4998021;28;20294;-35
2022/03/25 07:55:29;;;;;;;67.83;40.47;;;10.20;91.50;;;;;;4987923;28;20241;-35
2022/03/25 07:57:59;;;;;;;63.60;38.60;;;10.20;91.60;;;;;;4987532;28;20301;-36
2022/03/25 08:00:26;;;;;;;58.77;38.07;;;10.30;91.50;;;;;;4987572;28;20293;-36
2022/03/25 08:02:55;;;;;;;58.67;38.07;;;10.30;91.40;;;;;;4996951;28;20222;-35
2022/03/25 08:05:23;;;;;;;62.87;38.87;;;10.40;91.50;;;;;;4987532;28;20201;-36
2022/03/25 08:07:54;;;;;;;64.77;38.70;;;10.40;91.50;;;;;;4988599;28;20704;-36
2022/03/25 08:10:29;;;;;;;63.30;39.40;;;10.50;91.60;;;;;;4988035;28;20194;-35
2022/03/25 08:12:58;;;;;;;63.60;38.87;;;10.60;91.80;;;;;;4970181;28;20204;-35
2022/03/25 08:15:30;;;;;;;64.70;38.77;;;10.60;91.60;;;;;;4987354;28;20677;-35
2022/03/25 08:18:03;;;;;;;59.03;38.10;;;10.70;91.60;;;;;;4986760;28;20578;-35
2022/03/25 08:20:39;;;;;;;60.47;39.80;;;10.70;91.70;;;;;;5000795;28;20300;-36
2022/03/25 08:28:55;;;;;;;61.80;39.30;;;10.90;91.70;;;;;;5006431;28;20877;-35
2022/03/25 08:31:49;;;;;;;63.83;41.73;;;10.90;91.70;;;;;;5007216;28;20201;-36
2022/03/25 08:34:17;;;;;;;68.40;42.70;;;11.00;91.90;;;;;;5006631;28;20316;-35
2022/03/25 08:36:47;;;;;;;68.33;41.60;;;11.10;91.90;;;;;;5002258;28;20249;-36
2022/03/25 08:39:15;;;;;;;73.13;42.63;;;11.10;92.10;;;;;;4991634;28;20210;-35
2022/03/25 08:41:43;;;;;;;63.60;42.03;;;11.10;92.10;;;;;;5005658;28;20217;-35
2022/03/25 08:44:11;;;;;;;64.90;41.20;;;11.20;92.10;;;;;;5010344;28;20240;-35
2022/03/25 08:46:39;;;;;;;62.00;40.07;;;11.20;92.00;;;;;;5010777;28;20858;-36
2022/03/25 08:49:12;;;;;;;64.17;41.57;;;11.30;92.10;;;;;;5010555;28;20289;-32
2022/03/25 08:51:40;;;;;;;62.20;40.20;;;11.40;92.10;;;;;;5010739;28;20220;-32
2022/03/25 08:54:10;;;;;;;70.50;41.87;;;11.50;92.20;;;;;;4999351;28;20693;-32
2022/03/25 08:56:40;;;;;;;66.70;43.30;;;11.60;92.20;;;;;;4991255;28;20226;-32
2022/03/25 08:59:10;;;;;;;68.17;42.57;;;11.60;92.40;;;;;;4984827;28;20203;-32
2022/03/25 09:01:44;;;;;;;67.93;41.77;;;11.70;92.30;;;;;;4999380;28;20248;-32
2022/03/25 09:04:11;;;;;;;63.03;40.53;;;11.70;92.30;;;;;;5010164;28;20198;-32
2022/03/25 09:06:41;;;;;;;61.57;39.43;;;11.80;92.30;;;;;;5010489;28;20221;-32
2022/03/25 09:09:09;;;;;;;64.87;40.67;;;11.90;92.40;;;;;;4992810;28;20229;-32
2022/03/25 09:11:41;;;;;;;68.57;40.50;;;11.90;92.40;;;;;;4977350;28;20546;-33
2022/03/25 09:14:08;;;;;;;67.57;41.13;;;12.00;92.50;;;;;;4990879;28;20746;-32
2022/03/25 09:16:38;;;;;;;63.70;40.97;;;12.00;92.50;;;;;;4990636;28;20305;-32
2022/03/25 09:19:05;;;;;;;64.30;42.03;;;12.10;92.80;;;;;;4990021;28;20732;-32
2022/03/25 09:21:38;;;;;;;60.10;40.73;;;12.20;92.70;;;;;;4972988;28;20236;-32
2022/03/25 09:24:12;;;;;;;68.40;44.27;;;12.20;92.70;;;;;;4990298;28;20217;-32
2022/03/25 09:26:44;;;;;;;66.53;42.90;;;12.30;92.90;;;;;;4988745;28;20642;-32
2022/03/25 09:29:14;;;;;;;72.30;44.83;;;12.30;92.80;;;;;;5009049;28;20264;-32
2022/03/25 09:31:43;;;;;;;67.17;45.43;;;12.40;93.00;;;;;;4986002;28;20696;-32
2022/03/25 09:37:01;;;;;;;80.10;47.10;;;12.50;93.10;;;;;;4969810;28;20211;-32
2022/03/25 09:39:31;;;;;;;69.07;45.47;;;12.50;93.40;;;;;;4990409;28;20210;-33
2022/03/25 09:42:05;;;;;;;73.63;46.10;;;12.60;93.20;;;;;;4989962;28;20195;-32
2022/03/25 09:44:34;;;;;;;72.97;46.03;;;12.70;93.20;;;;;;4973811;28;20693;-33
2022/03/25 09:47:03;;;;;;;74.00;45.93;;;12.70;93.20;;;;;;4989758;28;20230;-32
2022/03/25 09:49:31;;;;;;;70.97;45.97;;;12.80;93.30;;;;;;4990034;28;20317;-33
2022/03/25 09:52:01;;;;;;;67.40;44.10;;;12.90;93.30;;;;;;4990197;28;20214;-33
2022/03/25 09:54:35;;;;;;;67.97;43.93;;;13.00;93.30;;;;;;4989729;28;20250;-33
2022/03/25 09:57:05;;;;;;;66.57;44.60;;;13.10;93.30;;;;;;4989684;28;20520;-32
2022/03/25 09:59:37;;;;;;;70.30;42.72;;;13.20;93.40;;;;;;4989173;28;20325;-33
2022/03/25 10:02:07;;;;;;;70.63;43.47;;;13.30;93.50;;;;;;4991201;28;20214;-32
2022/03/25 10:04:57;;;;;;;63.80;40.23;;;13.30;93.60;;;;;;4989221;28;20202;-32
2022/03/25 10:07:34;;;;;;;60.20;38.75;;;13.40;93.40;;;;;;4990542;28;20229;-32
2022/03/25 10:10:22;;;;;;;62.50;37.92;;;13.50;93.50;;;;;;5001396;28;20205;-33
2022/03/25 10:13:02;;;;;;;59.53;38.20;;;13.40;93.40;;;;;;4989558;28;20202;-33
2022/03/25 10:15:33;;;;;;;60.30;35.67;;;13.50;93.30;;;;;;4987519;28;20214;-33
2022/03/25 10:18:08;;;;;;;58.97;36.67;;;13.60;93.30;;;;;;4973986;28;20634;-34
2022/03/25 10:20:41;;;;;;;60.90;38.07;;;13.70;93.40;;;;;;5008553;28;20634;-33
2022/03/25 10:23:11;;;;;;;55.60;35.10;;;13.70;93.40;;;;;;5008049;28;20307;-33
2022/03/25 10:25:47;;;;;;;54.03;34.30;;;13.80;93.40;;;;;;5009127;28;20654;-33
2022/03/25 10:28:26;;;;;;;53.83;34.10;;;13.90;93.40;;;;;;5006461;28;20224;-33
2022/03/25 10:30:59;;;;;;;54.33;33.05;;;13.90;93.30;;;;;;5009264;28;20202;-33
2022/03/25 10:33:34;;;;;;;54.55;32.08;;;13.90;93.30;;;;;;5007997;28;20217;-33
2022/03/25 10:36:12;;;;;;;51.63;32.50;;;14.00;93.70;;;;;;4990236;28;20216;-33
2022/03/25 10:39:01;;;;;;;50.78;30.90;;;14.10;93.30;;;;;;5008454;28;20208;-33
2022/03/25 10:41:39;;;;;;;45.30;28.65;;;14.20;93.40;;;;;;4972148;28;20225;-33
2022/03/25 10:44:08;;;;;;;44.17;27.83;;;14.30;93.30;;;;;;4988734;28;20316;-33
2022/03/25 10:46:40;;;;;;;39.88;24.55;;;14.30;93.20;;;;;;4989312;28;20225;-33
2022/03/25 10:49:11;;;;;;;45.25;25.73;;;14.40;93.20;;;;;;4988497;28;20651;-33
2022/03/25 10:51:44;;;;;;;42.35;25.60;;;14.40;93.10;;;;;;4988631;28;20220;-33
2022/03/25 10:54:17;;;;;;;39.28;24.13;;;14.50;93.00;;;;;;4988735;28;20253;-33
2022/03/25 10:56:53;;;;;;;38.05;24.67;;;14.50;93.00;;;;;;4989678;28;20233;-33
2022/03/25 10:59:34;;;;;;;37.88;24.08;;;14.60;93.10;;;;;;4987695;28;20206;-33
2022/03/25 11:02:11;;;;;;;34.75;22.85;;;14.70;93.20;;;;;;4955721;28;20206;-36
2022/03/25 11:04:43;;;;;;;38.58;22.63;;;14.70;93.00;;;;;;5004239;28;20217;-36
2022/03/25 11:07:13;;;;;;;36.70;22.67;;;14.70;92.80;;;;;;5007961;28;20304;-36
2022/03/25 11:09:44;;;;;;;36.30;22.58;;;14.80;92.60;;;;;;4990219;28;20240;-36
2022/03/25 11:12:14;;;;;;;36.53;22.10;;;14.80;92.60;;;;;;5007723;28;20205;-36
2022/03/25 11:14:49;;;;;;;33.72;20.77;;;14.90;92.90;;;;;;5006841;28;20201;-36
2022/03/25 11:17:26;;;;;;;32.53;19.65;;;14.90;92.80;;;;;;4989643;28;20244;-37
2022/03/25 11:19:56;;;;;;;29.52;19.30;;;15.00;92.40;;;;;;4979643;28;20614;-36
2022/03/25 11:22:24;;;;;;;27.20;18.35;;;15.00;92.60;;;;;;4990025;28;20289;-37
2022/03/25 11:24:55;;;;;;;30.08;18.70;;;15.00;93.00;;;;;;5007378;28;20244;-36
2022/03/25 11:27:33;;;;;;;30.80;20.95;;;15.10;92.60;;;;;;4988699;28;20357;-36
2022/03/25 11:30:09;;;;;;;29.10;18.52;;;15.10;92.40;;;;;;4988214;28;20522;-36
2022/03/25 11:32:57;;;;;;;31.42;19.85;;;15.20;92.80;;;;;;4986438;28;20231;-36
2022/03/25 11:35:26;;;;;;;28.58;18.05;;;15.30;92.50;;;;;;5006423;28;20213;-36
2022/03/25 11:38:15;;;;;;;29.67;17.38;;;15.30;92.50;;;;;;5006752;28;20202;-37
2022/03/25 11:40:47;;;;;;;29.25;16.60;;;15.40;92.60;;;;;;5007328;28;20296;-37
2022/03/25 11:43:25;;;;;;;27.20;16.65;;;15.40;92.30;;;;;;5005629;28;20271;-36
2022/03/25 11:46:09;;;;;;;25.25;16.33;;;15.40;92.10;;;;;;5005797;28;20703;-36
2022/03/25 11:48:40;;;;;;;26.42;16.17;;;15.40;92.30;;;;;;4974941;28;20236;-37
2022/03/25 11:51:33;;;;;;;25.75;15.15;;;15.50;92.30;;;;;;4987524;28;20214;-37
2022/03/25 11:54:33;;;;;;;25.67;16.10;;;15.60;92.40;;;;;;4986283;28;20241;-37
2022/03/25 11:57:03;;;;;;;26.00;17.48;;;15.60;91.60;;;;;;4987031;28;20206;-37
2022/03/25 12:00:02;;;;;;;31.85;16.30;;;15.60;92.20;;;;;;4985632;28;20294;-37
2022/03/25 12:02:36;;;;;;;31.88;16.50;;;15.70;91.70;;;;;;4975045;28;20222;-37
2022/03/25 12:05:25;;;;;;;22.42;15.82;;;15.70;91.90;;;;;;4995880;28;20202;-37
2022/03/25 12:08:29;;;;;;;27.15;15.63;;;15.80;92.30;;;;;;4987379;28;20213;-37
2022/03/25 12:10:57;;;;;;;31.52;16.58;;;15.90;92.10;;;;;;4989385;28;20296;-36
2022/03/25 12:13:56;;;;;;;26.83;15.05;;;15.90;92.10;;;;;;4990450;28;20210;-36
2022/03/25 12:17:07;;;;;;;22.17;13.85;;;16.00;92.60;;;;;;4989689;28;20201;-37
2022/03/25 12:19:39;;;;;;;27.55;15.65;;;16.10;92.70;;;;;;4930163;29;20395;-33
2022/03/25 12:22:21;;;;;;;25.40;15.43;;;16.10;92.70;;;;;;4930374;29;20216;-33
2022/03/25 12:24:51;;;;;;;28.23;15.57;;;16.20;92.60;;;;;;4970285;28;20285;-33
2022/03/25 12:27:21;;;;;;;23.90;15.48;;;16.30;92.80;;;;;;4986194;28;20235;-33
2022/03/25 12:29:54;;;;;;;22.38;14.35;;;16.30;92.80;;;;;;5002688;28;20218;-33
2022/03/25 12:32:33;;;;;;;25.30;14.45;;;16.40;92.80;;;;;;5006993;28;20268;-33
2022/03/25 12:35:16;;;;;;;24.23;14.98;;;16.40;92.60;;;;;;5009454;28;20232;-33
2022/03/25 12:38:09;;;;;;;23.35;14.98;;;16.50;92.70;;;;;;4993629;28;20204;-33
2022/03/25 12:40:36;;;;;;;25.52;15.85;;;16.50;92.50;;;;;;4991136;28;20198;-33
2022/03/25 12:43:08;;;;;;;30.10;16.75;;;16.60;92.70;;;;;;4991181;28;20256;-37
2022/03/25 12:45:45;;;;;;;22.05;14.75;;;16.60;92.70;;;;;;4990723;28;20274;-37
2022/03/25 12:48:21;;;;;;;29.75;17.10;;;16.70;92.80;;;;;;4990619;28;20598;-37
2022/03/25 12:50:59;;;;;;;28.52;17.20;;;16.70;92.30;;;;;;4974288;28;20637;-33
2022/03/25 12:53:29;;;;;;;27.70;16.27;;;16.70;92.00;;;;;;4990298;28;20214;-34
2022/03/25 12:56:03;;;;;;;27.13;16.30;;;16.70;92.30;;;;;;4982079;28;20712;-33
2022/03/25 12:58:35;;;;;;;31.67;16.20;;;16.80;92.50;;;;;;4991576;28;20705;-33
2022/03/25 13:01:07;;;;;;;27.65;15.98;;;16.80;92.40;;;;;;5010092;28;20419;-33